Time;durP1;ratioP1;P1;durP2;ratioP2;P2;SDS_P1;SDS_P2;PMS_P1;PMS_P2;Temp;Humidity;BMP_temperature;BMP_pressure;BME280_temperature;BME280_humidity;BME280_pressure;Samples;Min_cycle;Max_cycle;Signal;HPM_P1;HPM_P2
2021/09/04 00:00:09;;;;;;;10.68;6.30;;;17.40;90.30;;;;;;6159084;23;20024;-81
2021/09/04 00:02:35;;;;;;;10.30;6.60;;;17.40;90.30;;;;;;6186182;23;20028;-81
2021/09/04 00:05:01;;;;;;;10.20;6.20;;;17.40;90.30;;;;;;6186239;23;20442;-81
2021/09/04 00:07:28;;;;;;;9.65;6.07;;;17.40;90.30;;;;;;6159161;23;20020;-82
2021/09/04 00:09:53;;;;;;;9.95;6.28;;;17.40;90.40;;;;;;6185555;23;20052;-81
2021/09/04 00:12:19;;;;;;;10.95;6.38;;;17.40;90.50;;;;;;6160054;23;20446;-81
2021/09/04 00:14:45;;;;;;;11.48;6.22;;;17.30;90.50;;;;;;6159258;23;20024;-82
2021/09/04 00:17:10;;;;;;;11.23;6.05;;;17.30;90.60;;;;;;6159873;23;20146;-81
2021/09/04 00:19:37;;;;;;;10.35;5.60;;;17.30;90.50;;;;;;6159792;23;20059;-82
2021/09/04 00:22:03;;;;;;;9.18;5.47;;;17.30;91.00;;;;;;6185802;23;20071;-83
2021/09/04 00:24:28;;;;;;;9.68;5.78;;;17.30;90.50;;;;;;6160058;23;20017;-82
2021/09/04 00:26:55;;;;;;;11.68;5.95;;;17.30;91.00;;;;;;6160187;23;20025;-82
2021/09/04 00:29:21;;;;;;;8.32;5.68;;;17.30;90.40;;;;;;6159360;23;20024;-82
2021/09/04 00:31:48;;;;;;;9.80;6.07;;;17.30;90.60;;;;;;6159862;23;20025;-82
2021/09/04 00:34:14;;;;;;;9.23;5.68;;;17.30;90.70;;;;;;6186645;23;20063;-82
2021/09/04 00:36:39;;;;;;;8.70;5.80;;;17.30;90.60;;;;;;6158695;23;20504;-82
2021/09/04 00:39:06;;;;;;;9.80;5.97;;;17.30;90.60;;;;;;6160270;23;20017;-82
2021/09/04 00:41:34;;;;;;;9.88;5.85;;;17.30;90.70;;;;;;6159911;23;20047;-82
2021/09/04 00:44:01;;;;;;;9.50;5.68;;;17.30;90.80;;;;;;6159291;23;20067;-82
2021/09/04 00:46:27;;;;;;;10.13;5.93;;;17.30;90.80;;;;;;6159828;23;20456;-81
2021/09/04 00:48:53;;;;;;;10.85;5.65;;;17.20;90.60;;;;;;6159773;23;20021;-82
2021/09/04 00:51:19;;;;;;;8.18;5.10;;;17.20;90.60;;;;;;6158848;23;20017;-83
2021/09/04 00:53:45;;;;;;;10.25;5.90;;;17.20;90.60;;;;;;6159632;23;20872;-82
2021/09/04 00:56:13;;;;;;;11.43;6.15;;;17.20;90.40;;;;;;6159093;23;20100;-83
2021/09/04 00:58:39;;;;;;;8.73;5.93;;;17.20;90.50;;;;;;6159312;23;20017;-82
2021/09/04 01:01:05;;;;;;;9.77;5.40;;;17.10;90.60;;;;;;6159291;23;20099;-82
2021/09/04 01:03:30;;;;;;;8.85;5.32;;;17.10;90.60;;;;;;6158088;23;20457;-82
2021/09/04 01:05:56;;;;;;;8.70;6.05;;;17.10;90.50;;;;;;6177122;23;20135;-82
2021/09/04 01:08:21;;;;;;;10.57;5.25;;;17.10;90.60;;;;;;6189573;23;20017;-82
2021/09/04 01:10:51;;;;;;;9.35;5.68;;;17.10;90.60;;;;;;6188451;23;20114;-82
2021/09/04 01:13:17;;;;;;;10.15;5.35;;;17.10;90.60;;;;;;6189798;23;20016;-82
2021/09/04 01:15:44;;;;;;;9.93;5.55;;;17.10;90.60;;;;;;6189052;23;20099;-82
2021/09/04 01:18:10;;;;;;;10.88;5.72;;;17.00;90.60;;;;;;6188654;23;20021;-82
2021/09/04 01:20:36;;;;;;;9.18;5.32;;;17.00;90.60;;;;;;6189306;23;20015;-82
2021/09/04 01:23:02;;;;;;;10.13;5.55;;;17.00;90.60;;;;;;6189467;23;20024;-82
2021/09/04 01:25:29;;;;;;;9.38;5.63;;;17.00;90.60;;;;;;6215375;23;20013;-82
2021/09/04 01:28:01;;;;;;;8.88;5.25;;;17.00;90.60;;;;;;6215818;23;20013;-82
2021/09/04 01:30:27;;;;;;;8.88;5.43;;;17.00;90.60;;;;;;6215216;23;20047;-82
2021/09/04 01:32:52;;;;;;;10.68;5.72;;;17.00;90.30;;;;;;6188125;23;20020;-82
2021/09/04 01:35:23;;;;;;;10.65;5.32;;;16.90;90.30;;;;;;6189684;23;20511;-82
2021/09/04 01:37:50;;;;;;;9.52;5.13;;;16.90;90.50;;;;;;6189444;23;20021;-82
2021/09/04 01:40:17;;;;;;;10.73;5.07;;;16.90;90.60;;;;;;6215832;23;20075;-82
2021/09/04 01:42:44;;;;;;;7.65;5.35;;;16.90;90.70;;;;;;6216136;23;20020;-82
2021/09/04 01:45:11;;;;;;;8.48;4.95;;;16.90;90.80;;;;;;6216961;23;20031;-80
2021/09/04 01:47:36;;;;;;;9.55;5.40;;;17.00;90.90;;;;;;6189565;23;20020;-82
2021/09/04 01:50:03;;;;;;;8.75;5.40;;;16.90;90.80;;;;;;6190532;23;20013;-82
2021/09/04 01:52:29;;;;;;;10.32;5.20;;;16.90;90.80;;;;;;6189367;23;20023;-82
2021/09/04 01:54:54;;;;;;;9.38;5.28;;;17.00;90.90;;;;;;6191002;23;20016;-82
2021/09/04 01:57:20;;;;;;;8.25;5.25;;;16.90;90.80;;;;;;6189953;23;20091;-82
2021/09/04 01:59:46;;;;;;;8.55;5.20;;;16.90;90.80;;;;;;6189060;23;20330;-82
2021/09/04 02:02:13;;;;;;;8.65;5.13;;;16.90;90.70;;;;;;6189825;23;20449;-82
2021/09/04 02:04:39;;;;;;;9.07;5.10;;;16.90;90.70;;;;;;6187003;23;20016;-82
2021/09/04 02:07:05;;;;;;;9.25;4.97;;;16.90;90.90;;;;;;6159276;23;20108;-82
2021/09/04 02:09:31;;;;;;;9.15;5.53;;;16.80;90.70;;;;;;6159680;23;20009;-82
2021/09/04 02:11:57;;;;;;;9.05;5.18;;;16.80;90.90;;;;;;6160918;23;20009;-82
2021/09/04 02:14:23;;;;;;;10.23;5.30;;;16.80;90.90;;;;;;6158761;23;20025;-82
2021/09/04 02:16:49;;;;;;;9.07;4.72;;;16.80;90.90;;;;;;6159209;23;20017;-82
2021/09/04 02:19:14;;;;;;;10.30;4.68;;;16.80;90.50;;;;;;6159421;23;20100;-83
2021/09/04 02:21:40;;;;;;;8.75;5.10;;;16.80;90.30;;;;;;6158931;23;20021;-82
2021/09/04 02:24:06;;;;;;;9.82;5.03;;;16.80;90.40;;;;;;6186203;23;20461;-82
2021/09/04 02:26:31;;;;;;;8.95;4.95;;;16.80;90.50;;;;;;6159708;23;20025;-80
2021/09/04 02:28:58;;;;;;;7.65;4.93;;;16.70;90.60;;;;;;6184418;23;20049;-80
2021/09/04 02:31:24;;;;;;;8.57;4.90;;;16.70;90.80;;;;;;6159292;23;20025;-80
2021/09/04 02:33:54;;;;;;;7.07;4.47;;;16.70;90.70;;;;;;6186562;23;20410;-81
2021/09/04 02:36:20;;;;;;;9.68;4.05;;;16.70;90.80;;;;;;6159741;23;20021;-81
2021/09/04 02:38:47;;;;;;;7.55;4.68;;;16.70;90.80;;;;;;6159869;23;20472;-81
2021/09/04 02:41:13;;;;;;;8.75;4.97;;;16.70;91.00;;;;;;6187115;23;20017;-81
2021/09/04 02:43:39;;;;;;;7.43;4.63;;;16.60;90.60;;;;;;6158252;23;20027;-81
2021/09/04 02:46:05;;;;;;;7.80;4.00;;;16.60;90.80;;;;;;6186523;23;20021;-81
2021/09/04 02:48:31;;;;;;;7.28;4.00;;;16.60;90.50;;;;;;6159903;23;20014;-81
2021/09/04 02:50:57;;;;;;;10.98;4.53;;;16.60;90.60;;;;;;6184697;23;20307;-81
2021/09/04 02:53:23;;;;;;;6.65;4.40;;;16.60;90.70;;;;;;6158539;23;20032;-81
2021/09/04 02:55:48;;;;;;;8.57;4.25;;;16.60;90.80;;;;;;6159298;23;20024;-81
2021/09/04 02:58:14;;;;;;;8.35;4.15;;;16.60;90.90;;;;;;6160889;23;20044;-81
2021/09/04 03:00:39;;;;;;;8.50;3.95;;;16.60;90.80;;;;;;6187899;23;20352;-81
2021/09/04 03:03:05;;;;;;;7.55;4.28;;;16.60;90.80;;;;;;6187398;23;20024;-81
2021/09/04 03:05:31;;;;;;;7.95;4.10;;;16.60;91.00;;;;;;6169490;23;20100;-81
2021/09/04 03:07:58;;;;;;;6.60;4.00;;;16.50;91.00;;;;;;6186444;23;20033;-81
2021/09/04 03:10:24;;;;;;;6.70;3.88;;;16.60;91.10;;;;;;6185083;23;20025;-81
2021/09/04 03:12:49;;;;;;;7.45;4.28;;;16.50;91.50;;;;;;6188496;23;20442;-81
2021/09/04 03:15:15;;;;;;;7.57;4.00;;;16.50;91.10;;;;;;6186481;23;20099;-81
2021/09/04 03:17:41;;;;;;;8.65;4.20;;;16.60;91.20;;;;;;6184587;23;20021;-81
2021/09/04 03:20:08;;;;;;;7.75;3.55;;;16.50;91.20;;;;;;6187602;23;20048;-81
2021/09/04 03:22:34;;;;;;;8.55;3.97;;;16.50;91.00;;;;;;6187606;23;20032;-81
2021/09/04 03:25:00;;;;;;;6.82;4.20;;;16.50;91.00;;;;;;6187619;23;20334;-82
2021/09/04 03:27:25;;;;;;;6.85;3.85;;;16.50;91.00;;;;;;6187044;23;20083;-82
2021/09/04 03:29:51;;;;;;;7.38;3.80;;;16.50;91.00;;;;;;6187531;23;20036;-81
2021/09/04 03:32:17;;;;;;;8.02;4.10;;;16.50;91.10;;;;;;6185836;23;20028;-81
2021/09/04 03:34:42;;;;;;;7.38;4.20;;;16.50;91.20;;;;;;6188367;23;20027;-82
2021/09/04 03:37:08;;;;;;;8.88;3.60;;;16.50;91.30;;;;;;6187768;23;20071;-82
2021/09/04 03:39:33;;;;;;;7.32;3.90;;;16.50;91.30;;;;;;6184966;23;20074;-81
2021/09/04 03:41:59;;;;;;;7.55;3.58;;;16.50;91.30;;;;;;6186050;23;20013;-81
2021/09/04 03:44:24;;;;;;;6.35;3.70;;;16.50;91.20;;;;;;6184942;23;20021;-81
2021/09/04 03:46:50;;;;;;;7.80;3.72;;;16.50;91.10;;;;;;6184906;23;20017;-81
2021/09/04 03:49:16;;;;;;;6.38;3.90;;;16.50;91.20;;;;;;6187871;23;20051;-81
2021/09/04 03:51:42;;;;;;;6.90;3.80;;;16.50;91.10;;;;;;6186175;23;20067;-81
2021/09/04 03:54:08;;;;;;;6.32;3.70;;;16.50;91.20;;;;;;6186976;23;20041;-81
2021/09/04 03:56:34;;;;;;;6.57;3.85;;;16.50;91.30;;;;;;6187937;23;20017;-81
2021/09/04 03:59:00;;;;;;;6.70;3.75;;;16.50;91.20;;;;;;6185004;23;20017;-80
2021/09/04 04:01:25;;;;;;;6.55;3.47;;;16.40;91.20;;;;;;6187860;23;20096;-81
2021/09/04 04:03:51;;;;;;;8.18;3.58;;;16.40;91.20;;;;;;6186433;23;20399;-81
2021/09/04 04:06:17;;;;;;;7.22;3.78;;;16.40;91.10;;;;;;6185164;23;20060;-81
2021/09/04 04:08:42;;;;;;;6.97;3.50;;;16.40;91.00;;;;;;6186149;23;20009;-81
2021/09/04 04:11:11;;;;;;;7.47;4.10;;;16.40;91.10;;;;;;6186617;23;20025;-81
2021/09/04 04:13:38;;;;;;;6.78;3.55;;;16.40;91.10;;;;;;6185084;23;20016;-81
2021/09/04 04:16:05;;;;;;;7.18;3.50;;;16.40;91.10;;;;;;6185509;23;20092;-80
2021/09/04 04:18:33;;;;;;;7.25;3.88;;;16.30;91.10;;;;;;6186037;23;20017;-80
2021/09/04 04:21:00;;;;;;;7.22;4.03;;;16.40;91.10;;;;;;6185101;23;20013;-80
2021/09/04 04:23:26;;;;;;;7.65;3.20;;;16.40;91.00;;;;;;6186130;23;20013;-81
2021/09/04 04:25:52;;;;;;;5.82;3.50;;;16.40;90.80;;;;;;6186390;23;20103;-81
2021/09/04 04:28:18;;;;;;;6.70;3.35;;;16.30;90.80;;;;;;6184762;23;20397;-81
2021/09/04 04:30:45;;;;;;;6.22;3.63;;;16.30;91.00;;;;;;6184703;23;20020;-81
2021/09/04 04:33:10;;;;;;;8.05;3.47;;;16.30;91.00;;;;;;6185305;23;20013;-80
2021/09/04 04:35:36;;;;;;;8.40;3.65;;;16.30;90.70;;;;;;6186022;23;20069;-81
2021/09/04 04:38:02;;;;;;;5.95;3.22;;;16.30;90.80;;;;;;6187354;23;20337;-81
2021/09/04 04:40:28;;;;;;;6.50;3.30;;;16.30;90.90;;;;;;6187364;23;20073;-80
2021/09/04 04:42:53;;;;;;;7.35;3.55;;;16.30;91.10;;;;;;6186213;23;20017;-81
2021/09/04 04:45:19;;;;;;;7.45;3.38;;;16.30;91.20;;;;;;6185930;23;20345;-81
2021/09/04 04:47:45;;;;;;;7.13;3.40;;;16.30;91.20;;;;;;6185760;23;20021;-81
2021/09/04 04:50:11;;;;;;;6.53;3.40;;;16.30;91.20;;;;;;6185124;23;20013;-81
2021/09/04 04:52:37;;;;;;;6.47;3.63;;;16.30;91.20;;;;;;6185336;23;20028;-81
2021/09/04 04:55:04;;;;;;;7.30;3.75;;;16.30;91.30;;;;;;6186107;23;20331;-81
2021/09/04 04:57:29;;;;;;;6.03;3.35;;;16.30;91.40;;;;;;6186320;23;20071;-80
2021/09/04 04:59:55;;;;;;;6.53;3.55;;;16.30;91.40;;;;;;6184626;23;20021;-81
2021/09/04 05:02:20;;;;;;;6.50;3.70;;;16.30;91.30;;;;;;6184951;23;20052;-81
2021/09/04 05:04:46;;;;;;;7.30;3.72;;;16.30;91.10;;;;;;6185066;23;20029;-81
2021/09/04 05:07:11;;;;;;;7.88;3.25;;;16.30;91.20;;;;;;6161260;23;20021;-81
2021/09/04 05:09:37;;;;;;;7.07;3.60;;;16.30;91.20;;;;;;6159568;23;20013;-80
2021/09/04 05:12:03;;;;;;;9.07;3.60;;;16.30;91.30;;;;;;6186872;23;20096;-80
2021/09/04 05:14:28;;;;;;;7.25;3.80;;;16.20;91.20;;;;;;6159542;23;20083;-81
2021/09/04 05:16:54;;;;;;;6.35;3.65;;;16.20;91.20;;;;;;6159224;23;20025;-81
2021/09/04 05:19:19;;;;;;;7.88;3.90;;;16.20;91.10;;;;;;6160595;23;20021;-81
2021/09/04 05:21:45;;;;;;;6.88;3.53;;;16.20;91.10;;;;;;6160858;23;20016;-81
2021/09/04 05:24:10;;;;;;;8.02;3.80;;;16.20;91.10;;;;;;6159344;23;20072;-81
2021/09/04 05:26:36;;;;;;;6.80;3.78;;;16.20;91.10;;;;;;6160223;23;20400;-81
2021/09/04 05:29:02;;;;;;;7.22;3.60;;;16.20;91.20;;;;;;6160397;23;20017;-81
2021/09/04 05:31:27;;;;;;;5.40;3.33;;;16.20;91.20;;;;;;6159745;23;20017;-81
2021/09/04 05:33:53;;;;;;;6.43;3.50;;;16.20;91.20;;;;;;6158986;23;20025;-81
2021/09/04 05:36:19;;;;;;;5.88;3.80;;;16.20;91.30;;;;;;6160708;23;20019;-81
2021/09/04 05:38:44;;;;;;;7.05;3.80;;;16.20;91.30;;;;;;6158528;23;20073;-81
2021/09/04 05:41:10;;;;;;;6.53;3.58;;;16.20;91.30;;;;;;6185984;23;20329;-81
2021/09/04 05:43:36;;;;;;;7.13;3.95;;;16.10;91.20;;;;;;6158851;23;20021;-81
2021/09/04 05:46:01;;;;;;;6.55;3.60;;;16.10;91.20;;;;;;6184390;23;20036;-81
2021/09/04 05:48:27;;;;;;;6.65;3.65;;;16.10;91.10;;;;;;6160682;23;20021;-81
2021/09/04 05:50:55;;;;;;;6.22;3.75;;;16.10;91.00;;;;;;6186456;23;20017;-81
2021/09/04 05:53:21;;;;;;;6.10;3.58;;;16.10;90.80;;;;;;6159446;23;20381;-81
2021/09/04 05:55:47;;;;;;;7.32;3.60;;;16.10;90.90;;;;;;6159615;23;20021;-81
2021/09/04 05:58:12;;;;;;;7.70;3.60;;;16.10;90.90;;;;;;6160056;23;20021;-81
2021/09/04 06:00:38;;;;;;;6.82;3.78;;;16.10;91.00;;;;;;6158965;23;20013;-81
2021/09/04 06:03:03;;;;;;;6.75;3.70;;;16.10;91.10;;;;;;6186302;23;20071;-81
2021/09/04 06:05:29;;;;;;;7.88;3.42;;;16.10;91.00;;;;;;6166694;23;20040;-81
2021/09/04 06:07:55;;;;;;;6.45;3.58;;;16.10;91.00;;;;;;6183509;23;20017;-81
2021/09/04 06:10:21;;;;;;;6.88;3.45;;;16.10;91.00;;;;;;6184763;23;20025;-81
2021/09/04 06:12:46;;;;;;;6.10;3.60;;;16.10;91.10;;;;;;6183773;23;20021;-81
2021/09/04 06:15:12;;;;;;;7.78;3.97;;;16.10;91.10;;;;;;6185289;23;20020;-81
2021/09/04 06:17:38;;;;;;;7.15;3.90;;;16.10;91.20;;;;;;6184522;23;20063;-81
2021/09/04 06:20:08;;;;;;;8.30;3.72;;;16.20;91.20;;;;;;6184360;23;20021;-81
2021/09/04 06:22:34;;;;;;;7.07;3.80;;;16.20;91.30;;;;;;6183036;23;20017;-80
2021/09/04 06:25:00;;;;;;;7.47;3.90;;;16.20;91.30;;;;;;6186733;23;20036;-87
2021/09/04 06:27:25;;;;;;;6.72;3.95;;;16.20;91.30;;;;;;6183554;23;20511;-87
2021/09/04 06:29:51;;;;;;;6.97;3.70;;;16.20;91.30;;;;;;6185401;23;20032;-86
2021/09/04 06:32:16;;;;;;;7.03;3.88;;;16.20;91.10;;;;;;6186475;23;20072;-87
2021/09/04 06:34:42;;;;;;;6.53;3.83;;;16.20;91.20;;;;;;6190236;23;20045;-81
2021/09/04 06:37:08;;;;;;;6.20;3.88;;;16.20;91.30;;;;;;6188574;23;20025;-82
2021/09/04 06:39:34;;;;;;;8.43;4.00;;;16.20;91.30;;;;;;6188219;23;20040;-81
2021/09/04 06:41:59;;;;;;;8.27;4.05;;;16.30;91.00;;;;;;6185731;23;20017;-83
2021/09/04 06:44:25;;;;;;;9.80;4.05;;;16.30;90.90;;;;;;6186868;23;20024;-82
2021/09/04 06:46:50;;;;;;;8.80;3.65;;;16.30;90.90;;;;;;6186150;23;20013;-82
2021/09/04 06:49:16;;;;;;;9.55;4.28;;;16.20;90.50;;;;;;6184888;23;20071;-82
2021/09/04 06:51:41;;;;;;;9.10;3.80;;;16.20;90.60;;;;;;6185551;23;20017;-82
2021/09/04 06:54:07;;;;;;;8.50;4.20;;;16.20;90.50;;;;;;6187259;23;20021;-82
2021/09/04 06:56:33;;;;;;;9.65;3.90;;;16.20;90.40;;;;;;6186091;23;20044;-82
2021/09/04 06:58:59;;;;;;;10.50;4.20;;;16.20;90.20;;;;;;6186621;23;20021;-85
2021/09/04 07:01:24;;;;;;;9.15;3.97;;;16.20;90.30;;;;;;6186579;23;20009;-85
2021/09/04 07:03:50;;;;;;;9.35;4.40;;;16.20;90.40;;;;;;6185699;23;20456;-87
2021/09/04 07:06:15;;;;;;;8.38;3.75;;;16.20;90.50;;;;;;6188887;23;20454;-86
2021/09/04 07:08:41;;;;;;;10.70;4.20;;;16.20;90.50;;;;;;6161783;23;20366;-86
2021/09/04 07:11:09;;;;;;;8.77;3.80;;;16.20;90.60;;;;;;6160707;23;20017;-86
2021/09/04 07:13:35;;;;;;;10.55;4.07;;;16.30;90.60;;;;;;6162798;23;20020;-86
2021/09/04 07:16:00;;;;;;;8.38;4.30;;;16.30;90.70;;;;;;6162159;23;20017;-86
2021/09/04 07:18:26;;;;;;;9.20;4.13;;;16.20;90.70;;;;;;6162473;23;20092;-86
2021/09/04 07:20:52;;;;;;;8.02;3.60;;;16.30;90.70;;;;;;6162680;23;20017;-86
2021/09/04 07:23:18;;;;;;;8.82;3.97;;;16.30;90.40;;;;;;6161142;23;20349;-88
2021/09/04 07:25:44;;;;;;;6.90;3.47;;;16.30;90.60;;;;;;6161663;23;20029;-87
2021/09/04 07:28:10;;;;;;;6.85;3.70;;;16.30;90.70;;;;;;6160721;23;20017;-88
2021/09/04 07:30:36;;;;;;;9.55;3.67;;;16.30;90.70;;;;;;6160356;23;20460;-82
2021/09/04 07:33:02;;;;;;;12.45;3.70;;;16.30;90.30;;;;;;6188123;23;20024;-82
2021/09/04 07:35:28;;;;;;;7.72;3.92;;;16.30;90.10;;;;;;6188571;23;20028;-81
2021/09/04 07:37:54;;;;;;;6.60;3.30;;;16.40;90.40;;;;;;6160681;23;20056;-82
2021/09/04 07:40:20;;;;;;;6.63;3.55;;;16.40;90.40;;;;;;6161172;23;20092;-82
2021/09/04 07:42:45;;;;;;;7.28;3.50;;;16.40;90.50;;;;;;6161448;23;20036;-82
2021/09/04 07:45:11;;;;;;;7.13;3.35;;;16.40;90.60;;;;;;6160872;23;20016;-83
2021/09/04 07:47:37;;;;;;;6.03;3.63;;;16.40;90.50;;;;;;6188310;23;20071;-82
2021/09/04 07:50:04;;;;;;;8.10;3.33;;;16.40;90.60;;;;;;6186757;23;20464;-81
2021/09/04 07:52:29;;;;;;;8.60;3.65;;;16.50;90.70;;;;;;6161093;23;20013;-82
2021/09/04 07:54:55;;;;;;;13.13;3.40;;;16.50;90.70;;;;;;6188450;23;20028;-82
2021/09/04 07:57:20;;;;;;;7.00;3.22;;;16.50;90.30;;;;;;6188311;23;20098;-83
2021/09/04 07:59:46;;;;;;;7.43;3.20;;;16.50;90.40;;;;;;6161241;23;20032;-83
2021/09/04 08:02:11;;;;;;;7.63;3.72;;;16.50;90.20;;;;;;6161552;23;20470;-81
2021/09/04 08:04:37;;;;;;;7.15;3.25;;;16.50;90.30;;;;;;6161075;23;20087;-83
2021/09/04 08:07:03;;;;;;;11.45;3.25;;;16.60;90.40;;;;;;6187348;23;20025;-83
2021/09/04 08:09:29;;;;;;;8.07;3.40;;;16.60;90.10;;;;;;6187673;23;20021;-83
2021/09/04 08:11:54;;;;;;;6.90;3.40;;;16.60;90.10;;;;;;6161689;23;20018;-82
2021/09/04 08:14:20;;;;;;;6.72;3.45;;;16.60;90.20;;;;;;6161369;23;20017;-82
2021/09/04 08:16:46;;;;;;;6.72;2.95;;;16.70;90.20;;;;;;6161446;23;20021;-81
2021/09/04 08:19:11;;;;;;;8.88;3.10;;;16.70;90.20;;;;;;6186311;23;20469;-81
2021/09/04 08:21:37;;;;;;;9.13;3.15;;;16.70;90.20;;;;;;6159936;23;20020;-80
2021/09/04 08:24:03;;;;;;;7.50;3.42;;;16.70;88.80;;;;;;6160337;23;20388;-79
2021/09/04 08:26:28;;;;;;;6.43;3.38;;;16.70;89.20;;;;;;6185613;23;20021;-80
2021/09/04 08:28:55;;;;;;;8.20;3.20;;;16.70;89.60;;;;;;6186551;23;20009;-80
2021/09/04 08:31:21;;;;;;;8.65;3.30;;;16.80;89.80;;;;;;6159969;23;20472;-79
2021/09/04 08:33:49;;;;;;;8.65;3.30;;;16.80;89.70;;;;;;6158775;23;20029;-82
2021/09/04 08:36:15;;;;;;;8.52;3.50;;;16.80;89.60;;;;;;6160469;23;20027;-82
2021/09/04 08:38:40;;;;;;;7.28;2.83;;;16.80;89.40;;;;;;6160391;23;20104;-81
2021/09/04 08:41:06;;;;;;;7.97;2.88;;;16.90;88.90;;;;;;6186891;23;20017;-83
2021/09/04 08:43:33;;;;;;;5.97;3.15;;;16.90;88.80;;;;;;6159767;23;20017;-83
2021/09/04 08:46:00;;;;;;;8.18;3.20;;;16.90;88.60;;;;;;6159966;23;20013;-83
2021/09/04 08:48:26;;;;;;;8.13;2.80;;;16.90;88.90;;;;;;6159722;23;20017;-83
2021/09/04 08:50:53;;;;;;;8.27;2.95;;;17.00;88.60;;;;;;6135608;23;20048;-83
2021/09/04 08:53:19;;;;;;;7.63;3.10;;;17.00;88.40;;;;;;6160227;23;20017;-83
2021/09/04 08:55:45;;;;;;;6.55;2.92;;;17.10;88.90;;;;;;6159121;23;20013;-82
2021/09/04 08:58:10;;;;;;;6.18;3.03;;;17.10;89.00;;;;;;6160459;23;20507;-83
2021/09/04 09:00:38;;;;;;;6.65;2.83;;;17.10;89.10;;;;;;6159817;23;20020;-83
2021/09/04 09:03:04;;;;;;;7.38;2.97;;;17.20;88.50;;;;;;6158540;23;20068;-83
2021/09/04 09:05:44;;;;;;;6.30;3.03;;;17.20;88.80;;;;;;6167482;23;20021;-83
2021/09/04 09:08:21;;;;;;;9.38;3.03;;;17.20;88.30;;;;;;6185375;23;20059;-83
2021/09/04 09:10:46;;;;;;;7.85;2.72;;;17.30;88.70;;;;;;6183991;23;20020;-83
2021/09/04 09:13:16;;;;;;;6.53;2.70;;;17.30;88.70;;;;;;6184914;23;20509;-83
2021/09/04 09:15:42;;;;;;;7.28;2.70;;;17.30;88.10;;;;;;6183788;23;20056;-83
2021/09/04 09:18:10;;;;;;;6.53;2.65;;;17.40;88.40;;;;;;6184666;23;20103;-83
2021/09/04 09:20:56;;;;;;;6.82;2.90;;;17.40;87.40;;;;;;6184527;23;20021;-82
2021/09/04 09:23:22;;;;;;;4.95;2.67;;;17.40;86.70;;;;;;6185208;23;20088;-83
2021/09/04 09:25:48;;;;;;;6.53;2.60;;;17.40;87.30;;;;;;6186265;23;20017;-83
2021/09/04 09:28:17;;;;;;;7.03;2.70;;;17.50;87.40;;;;;;6184968;23;20028;-84
2021/09/04 09:30:49;;;;;;;10.30;3.08;;;17.50;87.70;;;;;;6183720;23;20053;-83
2021/09/04 09:33:20;;;;;;;8.45;2.90;;;17.60;87.60;;;;;;6184829;23;20017;-83
2021/09/04 09:35:47;;;;;;;7.13;2.90;;;17.60;87.50;;;;;;6184632;23;20017;-83
2021/09/04 09:38:18;;;;;;;6.47;2.80;;;17.70;86.70;;;;;;6183927;23;20021;-84
2021/09/04 09:40:44;;;;;;;7.00;2.65;;;17.70;86.80;;;;;;6185160;23;20025;-83
2021/09/04 09:43:15;;;;;;;5.82;2.80;;;17.70;86.40;;;;;;6184732;23;20480;-83
2021/09/04 09:45:59;;;;;;;9.43;2.70;;;17.70;86.60;;;;;;6185428;23;20025;-83
2021/09/04 09:48:33;;;;;;;6.55;2.50;;;17.70;85.50;;;;;;6185067;23;20043;-82
2021/09/04 09:51:01;;;;;;;9.98;3.50;;;17.80;86.00;;;;;;6185602;23;20021;-83
2021/09/04 09:53:28;;;;;;;6.57;2.67;;;17.80;86.40;;;;;;6186474;23;20021;-83
2021/09/04 09:55:56;;;;;;;5.25;2.47;;;17.90;86.50;;;;;;6186476;23;20338;-83
2021/09/04 09:58:23;;;;;;;5.63;2.53;;;17.90;86.30;;;;;;6183571;23;20028;-83
2021/09/04 10:00:53;;;;;;;6.63;2.50;;;17.90;86.50;;;;;;6184250;23;20315;-83
2021/09/04 10:03:20;;;;;;;8.65;2.83;;;18.00;86.20;;;;;;6184559;23;20445;-83
2021/09/04 10:05:47;;;;;;;6.35;2.47;;;18.00;85.70;;;;;;6183116;23;20088;-83
2021/09/04 10:08:17;;;;;;;7.32;2.55;;;18.10;85.50;;;;;;6184900;23;20075;-83
2021/09/04 10:10:43;;;;;;;7.88;2.70;;;18.10;85.50;;;;;;6184707;23;20318;-83
2021/09/04 10:13:14;;;;;;;6.43;2.30;;;18.10;85.30;;;;;;6185518;23;20107;-84
2021/09/04 10:15:45;;;;;;;6.35;2.67;;;18.20;85.60;;;;;;6186157;23;20084;-83
2021/09/04 10:18:11;;;;;;;4.93;2.53;;;18.30;85.70;;;;;;6184661;23;20021;-83
2021/09/04 10:20:37;;;;;;;7.55;3.10;;;18.40;85.90;;;;;;6183880;23;20377;-83
2021/09/04 10:23:36;;;;;;;7.68;2.80;;;18.40;84.50;;;;;;6184604;23;20024;-83
2021/09/04 10:26:23;;;;;;;7.72;2.70;;;18.40;82.30;;;;;;6183818;23;20040;-83
2021/09/04 10:28:55;;;;;;;8.32;2.85;;;18.50;82.70;;;;;;6184412;23;20028;-83
2021/09/04 10:31:52;;;;;;;11.13;3.25;;;18.60;83.70;;;;;;6185533;23;20013;-83
2021/09/04 10:34:39;;;;;;;4.47;2.30;;;18.60;82.80;;;;;;6184096;23;20051;-83
2021/09/04 10:37:05;;;;;;;6.50;2.58;;;18.70;84.70;;;;;;6183235;23;20047;-85
2021/09/04 10:40:09;;;;;;;7.72;2.65;;;18.70;85.10;;;;;;6184233;23;20017;-84
2021/09/04 10:42:43;;;;;;;5.85;2.58;;;18.80;85.30;;;;;;6184721;23;20024;-81
2021/09/04 10:45:12;;;;;;;8.77;3.33;;;18.90;85.90;;;;;;6184964;23;20017;-81
2021/09/04 10:47:57;;;;;;;8.18;2.75;;;18.90;84.60;;;;;;6185013;23;20028;-83
2021/09/04 10:50:25;;;;;;;10.77;3.42;;;19.00;83.90;;;;;;6186372;23;20079;-83
2021/09/04 10:52:50;;;;;;;6.47;2.83;;;19.10;83.40;;;;;;6183842;23;20063;-85
2021/09/04 10:55:22;;;;;;;8.40;3.17;;;19.20;84.50;;;;;;6185510;23;20017;-86
2021/09/04 10:57:53;;;;;;;8.02;3.78;;;19.30;83.20;;;;;;6184010;23;20028;-85
2021/09/04 11:00:26;;;;;;;6.80;3.03;;;19.30;82.10;;;;;;6184398;23;20014;-84
2021/09/04 11:02:58;;;;;;;7.28;3.20;;;19.30;84.00;;;;;;6183183;23;20509;-84
2021/09/04 11:05:43;;;;;;;7.15;3.53;;;19.40;83.80;;;;;;6184521;23;20021;-84
2021/09/04 11:08:11;;;;;;;6.18;3.08;;;19.40;82.50;;;;;;6183472;23;20473;-85
2021/09/04 11:10:38;;;;;;;9.43;3.70;;;19.50;84.40;;;;;;6183546;23;20021;-85
2021/09/04 11:13:13;;;;;;;8.50;4.00;;;19.50;83.40;;;;;;6185711;23;20056;-84
2021/09/04 11:15:40;;;;;;;8.63;4.13;;;19.60;82.60;;;;;;6183591;23;20071;-85
2021/09/04 11:18:06;;;;;;;10.70;4.25;;;19.60;83.20;;;;;;6188513;23;20043;-86
2021/09/04 11:20:32;;;;;;;8.35;3.78;;;19.70;81.60;;;;;;6185738;23;20434;-82
2021/09/04 11:22:59;;;;;;;7.93;3.40;;;19.80;82.90;;;;;;6184370;23;20021;-82
2021/09/04 11:25:25;;;;;;;8.32;3.90;;;19.90;83.40;;;;;;6186771;23;20438;-82
2021/09/04 11:27:51;;;;;;;9.80;4.47;;;19.90;83.30;;;;;;6186661;23;20032;-83
2021/09/04 11:30:20;;;;;;;10.57;4.43;;;20.00;82.50;;;;;;6183663;23;20459;-80
2021/09/04 11:32:46;;;;;;;8.85;4.47;;;20.10;82.50;;;;;;6184311;23;20078;-81
2021/09/04 11:35:12;;;;;;;8.63;4.68;;;20.10;82.00;;;;;;6185685;23;20088;-81
2021/09/04 11:37:42;;;;;;;9.55;5.00;;;20.10;83.00;;;;;;6184164;23;20099;-81
2021/09/04 11:40:23;;;;;;;9.07;3.92;;;20.20;80.90;;;;;;6186822;23;20025;-82
2021/09/04 11:42:50;;;;;;;10.95;5.00;;;20.20;81.80;;;;;;6186929;23;20092;-81
2021/09/04 11:45:19;;;;;;;11.20;5.40;;;20.20;82.80;;;;;;6183839;23;20357;-81
2021/09/04 11:47:46;;;;;;;8.18;4.20;;;20.30;82.90;;;;;;6186355;23;20459;-81
2021/09/04 11:50:20;;;;;;;9.25;4.20;;;20.40;83.80;;;;;;6184967;23;20017;-81
2021/09/04 11:52:46;;;;;;;8.68;4.68;;;20.40;84.40;;;;;;6186835;23;20079;-82
2021/09/04 11:55:17;;;;;;;8.95;4.70;;;20.50;83.60;;;;;;6185133;23;20458;-81
2021/09/04 11:57:46;;;;;;;12.90;5.85;;;20.60;83.90;;;;;;6184048;23;20450;-81
2021/09/04 12:00:16;;;;;;;13.02;6.07;;;20.60;82.80;;;;;;6185593;23;20013;-81
2021/09/04 12:02:55;;;;;;;11.25;5.25;;;20.70;80.20;;;;;;6187214;23;20044;-80
2021/09/04 12:05:23;;;;;;;10.30;5.70;;;20.70;81.00;;;;;;6183985;23;20017;-82
2021/09/04 12:07:51;;;;;;;9.77;5.60;;;20.70;80.70;;;;;;6187207;23;20032;-81
2021/09/04 12:10:22;;;;;;;10.35;5.22;;;20.80;80.40;;;;;;6186847;23;20013;-82
2021/09/04 12:12:55;;;;;;;10.25;5.75;;;20.80;81.40;;;;;;6184209;23;20350;-81
2021/09/04 12:15:22;;;;;;;10.05;5.43;;;20.90;82.40;;;;;;6187177;23;20338;-81
2021/09/04 12:17:59;;;;;;;12.57;6.25;;;21.00;82.10;;;;;;6184785;23;20020;-81
2021/09/04 12:20:31;;;;;;;9.40;5.32;;;21.00;81.20;;;;;;6184515;23;20319;-81
2021/09/04 12:23:00;;;;;;;12.60;6.10;;;21.10;82.80;;;;;;6184932;23;20044;-84
2021/09/04 12:25:32;;;;;;;12.70;5.78;;;21.20;81.80;;;;;;6183721;23;20068;-83
2021/09/04 12:28:09;;;;;;;9.43;5.30;;;21.30;81.90;;;;;;6184838;23;20076;-83
2021/09/04 12:30:53;;;;;;;10.63;5.70;;;21.30;83.00;;;;;;6184373;23;20017;-83
2021/09/04 12:33:19;;;;;;;12.10;5.97;;;21.40;84.00;;;;;;6184044;23;20048;-83
2021/09/04 12:36:02;;;;;;;12.90;6.10;;;21.50;83.80;;;;;;6185955;23;20418;-84
2021/09/04 12:38:32;;;;;;;;;;;21.60;82.40;;;;;;6184402;23;20064;-82
2021/09/04 12:41:15;;;;;;;13.30;6.80;;;21.50;82.50;;;;;;6184060;23;19927;-83
2021/09/04 12:43:57;;;;;;;12.93;5.85;;;21.60;81.70;;;;;;6184817;23;20013;-81
2021/09/04 12:46:33;;;;;;;11.40;6.28;;;21.70;82.00;;;;;;6185614;23;20088;-82